createdAt,value
2023-03-29T00:00:09.843Z,72.74
2023-03-29T00:02:39.791Z,76.43
2023-03-29T00:05:08.667Z,79.59
2023-03-29T00:07:36.663Z,80.08
2023-03-29T00:10:06.218Z,79.38
2023-03-29T00:12:34.143Z,80.13
2023-03-29T00:15:01.893Z,79.15
2023-03-29T00:17:31.123Z,79.53
2023-03-29T00:19:58.923Z,80.42
2023-03-29T00:22:27.084Z,80.06
2023-03-29T00:24:54.804Z,80.88
2023-03-29T00:27:23.235Z,81.10
2023-03-29T00:29:50.965Z,80.73
2023-03-29T00:32:18.824Z,80.53
2023-03-29T00:34:50.653Z,81.22
2023-03-29T00:37:18.955Z,80.57
2023-03-29T00:39:46.869Z,80.21
2023-03-29T00:42:16.649Z,80.23
2023-03-29T00:45:03.754Z,80.43
2023-03-29T00:47:36.080Z,80.55
2023-03-29T00:50:09.448Z,80.96
2023-03-29T00:52:38.984Z,80.97
2023-03-29T00:55:12.261Z,80.94
2023-03-29T00:57:41.600Z,80.98
2023-03-29T01:00:11.380Z,81.14
2023-03-29T01:02:43.503Z,80.84
2023-03-29T01:05:18.392Z,80.80
2023-03-29T01:07:53.833Z,80.75
2023-03-29T01:10:27.272Z,80.49
2023-03-29T01:13:01.601Z,80.76
2023-03-29T01:15:30.334Z,80.19
2023-03-29T01:18:02.018Z,80.92
2023-03-29T01:20:44.135Z,80.94
2023-03-29T01:23:29.704Z,81.37
2023-03-29T01:26:05.913Z,81.70
2023-03-29T01:28:41.633Z,81.91
2023-03-29T01:31:13.082Z,82.38
2023-03-29T01:33:46.076Z,82.25
2023-03-29T01:36:19.294Z,82.46
2023-03-29T01:38:51.661Z,82.20
2023-03-29T01:41:20.156Z,81.96
2023-03-29T01:43:57.037Z,81.56
2023-03-29T01:46:31.105Z,81.79
2023-03-29T01:49:02.042Z,81.53
2023-03-29T01:51:36.757Z,81.12
2023-03-29T01:54:08.556Z,81.17
2023-03-29T01:56:41.259Z,81.56
2023-03-29T01:59:14.817Z,81.82
2023-03-29T02:01:49.134Z,81.76
2023-03-29T02:04:19.486Z,81.38
2023-03-29T02:06:47.645Z,81.78
2023-03-29T02:09:16.765Z,81.76
2023-03-29T02:11:46.120Z,81.84
2023-03-29T02:14:15.605Z,81.54
2023-03-29T02:16:48.337Z,81.42
2023-03-29T02:19:17.220Z,80.85
2023-03-29T02:21:48.678Z,81.07
2023-03-29T02:24:19.425Z,81.20
2023-03-29T02:26:47.589Z,81.05
2023-03-29T02:29:17.264Z,80.85
2023-03-29T02:31:51.345Z,80.47
2023-03-29T02:34:24.425Z,80.25
2023-03-29T02:36:54.617Z,80.59
2023-03-29T02:39:25.342Z,80.19
2023-03-29T02:41:54.706Z,80.09
2023-03-29T02:44:28.079Z,80.12
2023-03-29T02:46:59.752Z,80.14
2023-03-29T02:49:27.939Z,80.21
2023-03-29T02:52:01.962Z,80.12
2023-03-29T02:54:31.530Z,80.58
2023-03-29T02:57:01.028Z,80.54
2023-03-29T02:59:30.862Z,80.52
2023-03-29T03:01:58.550Z,80.67
2023-03-29T03:04:28.357Z,80.61
2023-03-29T03:06:56.204Z,80.38
2023-03-29T03:09:24.514Z,80.05
2023-03-29T03:11:53.646Z,79.93
2023-03-29T03:14:22.918Z,79.73
2023-03-29T03:16:52.796Z,79.63
2023-03-29T03:19:21.322Z,79.26
2023-03-29T03:21:50.991Z,79.77
2023-03-29T03:24:18.855Z,79.46
2023-03-29T03:26:50.031Z,79.50
2023-03-29T03:29:20.073Z,79.19
2023-03-29T03:32:19.316Z,78.83
2023-03-29T03:35:25.914Z,79.04
2023-03-29T03:37:53.593Z,79.18
2023-03-29T03:40:22.031Z,79.56
2023-03-29T03:42:49.697Z,79.59
2023-03-29T03:45:17.760Z,80.62
2023-03-29T03:48:10.137Z,80.28
2023-03-29T03:50:56.942Z,81.49
2023-03-29T03:53:27.455Z,82.50
2023-03-29T03:56:15.325Z,83.61
2023-03-29T03:58:58.252Z,83.33
2023-03-29T04:01:27.293Z,83.17
2023-03-29T04:04:10.900Z,82.79
2023-03-29T04:06:42.418Z,82.54
2023-03-29T04:09:32.517Z,82.61
2023-03-29T04:12:16.712Z,82.13
2023-03-29T04:14:47.597Z,81.51
2023-03-29T04:17:22.712Z,80.63
2023-03-29T04:19:58.479Z,80.29
2023-03-29T04:22:29.307Z,79.06
2023-03-29T04:24:57.229Z,78.64
2023-03-29T04:27:27.691Z,77.68
2023-03-29T04:29:55.811Z,77.19
2023-03-29T04:32:44.457Z,78.10
2023-03-29T04:35:14.279Z,78.10
2023-03-29T04:37:42.026Z,78.28
2023-03-29T04:40:15.047Z,78.22
2023-03-29T04:43:02.431Z,77.96
2023-03-29T04:45:31.491Z,77.55
2023-03-29T04:48:13.988Z,77.19
2023-03-29T04:50:48.450Z,77.08
2023-03-29T04:53:18.455Z,76.66
2023-03-29T04:55:47.582Z,76.45
2023-03-29T04:58:24.401Z,76.51
2023-03-29T05:00:57.454Z,76.99
2023-03-29T05:03:37.436Z,76.53
2023-03-29T05:06:19.880Z,76.85
2023-03-29T05:08:47.901Z,77.53
2023-03-29T05:11:24.553Z,77.17
2023-03-29T05:13:52.167Z,77.12
2023-03-29T05:16:20.705Z,77.83
2023-03-29T05:18:49.309Z,78.05
2023-03-29T05:21:41.085Z,77.68
2023-03-29T05:24:13.042Z,77.58
2023-03-29T05:26:40.961Z,77.58
2023-03-29T05:29:09.581Z,76.84
2023-03-29T05:31:38.916Z,76.49
2023-03-29T05:34:07.606Z,76.36
2023-03-29T05:36:45.537Z,76.44
2023-03-29T05:39:14.008Z,76.02
2023-03-29T05:41:42.126Z,75.87
2023-03-29T05:44:27.940Z,75.28
2023-03-29T05:47:02.787Z,75.14
2023-03-29T05:49:30.997Z,74.97
2023-03-29T05:52:08.055Z,75.52
2023-03-29T05:54:37.657Z,75.42
2023-03-29T05:57:07.151Z,75.21
2023-03-29T05:59:34.886Z,75.54
2023-03-29T06:02:04.858Z,75.12
2023-03-29T06:04:33.965Z,74.77
2023-03-29T06:07:18.931Z,74.55
2023-03-29T06:10:04.841Z,74.96
2023-03-29T06:12:32.648Z,75.20
2023-03-29T06:15:04.853Z,74.57
2023-03-29T06:17:41.246Z,74.27
2023-03-29T06:20:10.819Z,73.88
2023-03-29T06:22:42.921Z,74.76
2023-03-29T06:25:12.494Z,75.35
2023-03-29T06:27:42.640Z,74.59
2023-03-29T06:30:12.115Z,73.47
2023-03-29T06:32:40.086Z,75.70
2023-03-29T06:35:15.590Z,76.31
2023-03-29T06:37:51.014Z,76.32
2023-03-29T06:40:31.426Z,75.30
2023-03-29T06:42:59.938Z,76.54
2023-03-29T06:45:44.665Z,76.52
2023-03-29T06:48:21.265Z,76.60
2023-03-29T06:50:49.646Z,76.42
2023-03-29T06:53:20.002Z,76.46
2023-03-29T06:55:55.875Z,74.70
2023-03-29T06:59:01.886Z,74.42
2023-03-29T07:01:49.939Z,75.19
2023-03-29T07:04:24.973Z,75.72
2023-03-29T07:07:20.822Z,75.74
2023-03-29T07:09:55.542Z,76.04
2023-03-29T07:12:32.076Z,75.38
2023-03-29T07:15:04.485Z,73.33
2023-03-29T07:17:52.904Z,72.80
2023-03-29T07:20:22.933Z,72.38
2023-03-29T07:22:59.099Z,71.88
2023-03-29T07:25:29.961Z,71.12
2023-03-29T07:27:59.449Z,70.51
2023-03-29T07:30:32.021Z,69.55
2023-03-29T07:33:13.430Z,70.84
2023-03-29T07:35:48.503Z,70.05
2023-03-29T07:38:16.595Z,70.21
2023-03-29T07:40:50.945Z,69.82
2023-03-29T07:43:52.040Z,69.50
2023-03-29T07:46:25.198Z,69.48
2023-03-29T07:48:53.208Z,71.86
2023-03-29T07:51:21.456Z,69.61
2023-03-29T07:53:50.866Z,69.86
2023-03-29T07:56:52.589Z,68.53
2023-03-29T07:59:25.144Z,68.33
2023-03-29T08:02:05.105Z,67.58
2023-03-29T08:04:37.862Z,66.30
2023-03-29T08:07:21.210Z,66.50
2023-03-29T08:09:55.034Z,65.02
2023-03-29T08:12:33.388Z,65.68
2023-03-29T08:15:03.321Z,66.72
2023-03-29T08:17:35.100Z,65.24
2023-03-29T08:20:05.833Z,65.83
2023-03-29T08:22:33.692Z,63.21
2023-03-29T08:25:12.848Z,65.83
2023-03-29T08:27:46.542Z,65.09
2023-03-29T08:30:19.166Z,64.44
2023-03-29T08:32:50.362Z,64.92
2023-03-29T08:35:20.131Z,64.79
2023-03-29T08:38:02.724Z,66.42
2023-03-29T08:40:31.227Z,65.22
2023-03-29T08:43:40.699Z,65.61
2023-03-29T08:46:45.141Z,65.92
2023-03-29T08:49:39.275Z,64.31
2023-03-29T08:52:22.206Z,62.92
2023-03-29T08:54:54.040Z,64.36
2023-03-29T08:57:46.300Z,64.75
2023-03-29T09:00:26.953Z,65.36
2023-03-29T09:02:57.538Z,65.58
2023-03-29T09:05:30.994Z,64.70
2023-03-29T09:08:13.437Z,63.09
2023-03-29T09:10:46.617Z,63.06
2023-03-29T09:13:28.860Z,64.89
2023-03-29T09:16:06.130Z,63.60
2023-03-29T09:18:50.627Z,62.75
2023-03-29T09:21:25.151Z,65.36
2023-03-29T09:24:18.394Z,63.43
2023-03-29T09:26:57.152Z,65.36
2023-03-29T09:29:48.850Z,63.91
2023-03-29T09:32:22.540Z,65.18
2023-03-29T09:35:07.235Z,65.06
2023-03-29T09:37:37.862Z,64.72
2023-03-29T09:40:13.088Z,63.49
2023-03-29T09:42:55.456Z,63.85
2023-03-29T09:45:23.847Z,61.31
2023-03-29T09:47:58.966Z,61.58
2023-03-29T09:50:34.263Z,62.10
2023-03-29T09:53:05.651Z,63.39
2023-03-29T09:55:39.749Z,59.55
2023-03-29T09:58:18.079Z,59.23
2023-03-29T10:00:51.209Z,59.01
2023-03-29T10:03:23.783Z,56.83
2023-03-29T10:06:05.152Z,57.93
2023-03-29T10:08:40.702Z,58.09
2023-03-29T10:11:14.797Z,58.20
2023-03-29T10:13:47.086Z,57.31
2023-03-29T10:16:21.408Z,60.32
2023-03-29T10:18:51.171Z,58.11
2023-03-29T10:21:21.025Z,62.09
2023-03-29T10:23:49.805Z,58.75
2023-03-29T10:26:26.060Z,61.16
2023-03-29T10:28:57.222Z,60.51
2023-03-29T10:31:25.992Z,59.77
2023-03-29T10:33:57.434Z,60.53
2023-03-29T10:36:28.087Z,59.28
2023-03-29T10:38:59.418Z,61.81
2023-03-29T10:41:29.722Z,61.69
2023-03-29T10:43:57.452Z,62.55
2023-03-29T10:46:30.159Z,58.97
2023-03-29T10:49:02.545Z,60.00
2023-03-29T10:51:31.119Z,59.20
2023-03-29T10:53:59.307Z,61.47
2023-03-29T10:56:39.989Z,58.71
2023-03-29T10:59:23.110Z,59.54
2023-03-29T11:02:02.242Z,59.44
2023-03-29T11:04:41.349Z,63.31
2023-03-29T11:07:27.190Z,60.25
2023-03-29T11:10:04.571Z,60.61
2023-03-29T11:12:39.037Z,60.07
2023-03-29T11:15:23.427Z,58.87
2023-03-29T11:18:02.812Z,61.57
2023-03-29T11:20:41.070Z,62.19
2023-03-29T11:23:26.056Z,62.99
2023-03-29T11:26:05.320Z,60.62
2023-03-29T11:28:43.220Z,60.19
2023-03-29T11:31:20.210Z,59.83
2023-03-29T11:33:58.744Z,61.18
2023-03-29T11:36:36.570Z,59.12
2023-03-29T11:39:13.144Z,57.33
2023-03-29T11:41:43.581Z,58.26
2023-03-29T11:44:15.834Z,58.71
2023-03-29T11:46:47.788Z,58.69
2023-03-29T11:49:21.409Z,58.03
2023-03-29T11:51:55.810Z,56.65
2023-03-29T11:54:29.018Z,55.74
2023-03-29T11:57:01.750Z,55.89
2023-03-29T11:59:34.737Z,56.72
2023-03-29T12:02:11.561Z,55.69
2023-03-29T12:04:44.452Z,58.27
2023-03-29T12:07:18.070Z,54.16
2023-03-29T12:09:50.248Z,56.96
2023-03-29T12:12:23.392Z,54.13
2023-03-29T12:14:59.311Z,56.15
2023-03-29T12:17:31.877Z,52.80
2023-03-29T12:20:18.850Z,54.36
2023-03-29T12:22:51.924Z,55.50
2023-03-29T12:25:25.015Z,53.31
2023-03-29T12:28:07.624Z,53.91
2023-03-29T12:30:51.719Z,56.79
2023-03-29T12:33:38.358Z,52.17
2023-03-29T12:36:50.487Z,53.03
2023-03-29T12:39:38.792Z,53.51
2023-03-29T12:42:25.362Z,54.46
2023-03-29T12:45:18.088Z,54.76
2023-03-29T12:47:47.390Z,53.95
2023-03-29T12:50:28.558Z,55.37
2023-03-29T12:53:04.869Z,55.17
2023-03-29T12:55:47.631Z,55.68
2023-03-29T12:58:27.547Z,53.97
2023-03-29T13:01:06.649Z,54.79
2023-03-29T13:03:48.380Z,54.82
2023-03-29T13:06:30.396Z,52.65
2023-03-29T13:09:00.976Z,52.25
2023-03-29T13:11:34.819Z,50.65
2023-03-29T13:14:06.817Z,51.26
2023-03-29T13:16:35.884Z,52.22
2023-03-29T13:19:17.296Z,49.94
2023-03-29T13:21:56.011Z,49.93
2023-03-29T13:24:38.651Z,50.99
2023-03-29T13:27:18.517Z,53.79
2023-03-29T13:30:16.660Z,53.10
2023-03-29T13:33:17.849Z,51.95
2023-03-29T13:35:59.538Z,52.74
2023-03-29T13:38:31.492Z,52.32
2023-03-29T13:41:02.395Z,53.38
2023-03-29T13:43:52.855Z,53.64
2023-03-29T13:46:45.123Z,51.65
2023-03-29T13:49:19.720Z,52.31
2023-03-29T13:52:06.595Z,55.23
2023-03-29T13:54:40.742Z,52.33
2023-03-29T13:57:13.337Z,52.60
2023-03-29T13:59:58.773Z,53.32
2023-03-29T14:02:35.359Z,54.66
2023-03-29T14:05:05.663Z,53.71
2023-03-29T14:07:34.900Z,54.27
2023-03-29T14:10:03.237Z,54.50
2023-03-29T14:12:39.529Z,54.37
2023-03-29T14:15:22.530Z,55.20
2023-03-29T14:17:51.570Z,55.24
2023-03-29T14:20:19.894Z,57.00
2023-03-29T14:22:47.549Z,56.26
2023-03-29T14:25:18.135Z,55.87
2023-03-29T14:27:46.082Z,58.39
2023-03-29T14:30:26.132Z,57.54
2023-03-29T14:32:54.044Z,60.65
2023-03-29T14:35:29.670Z,60.86
2023-03-29T14:37:57.928Z,61.93
2023-03-29T14:40:26.607Z,63.78
2023-03-29T14:42:54.778Z,63.22
2023-03-29T14:45:24.466Z,64.93
2023-03-29T14:47:53.061Z,65.46
2023-03-29T14:50:26.233Z,66.70
2023-03-29T14:52:54.640Z,64.89
2023-03-29T14:55:25.016Z,65.70
2023-03-29T14:57:55.719Z,66.46
2023-03-29T15:00:30.123Z,64.80
2023-03-29T15:02:59.878Z,63.36
2023-03-29T15:05:38.153Z,64.38
2023-03-29T15:08:09.893Z,62.78
2023-03-29T15:10:38.982Z,61.79
2023-03-29T15:13:08.668Z,63.20
2023-03-29T15:15:39.790Z,62.52
2023-03-29T15:18:11.550Z,61.74
2023-03-29T15:20:40.800Z,63.27
2023-03-29T15:23:23.491Z,63.75
2023-03-29T15:25:56.380Z,62.54
2023-03-29T15:28:30.858Z,64.69
2023-03-29T15:31:07.872Z,68.95
2023-03-29T15:33:39.998Z,70.91
2023-03-29T15:36:10.061Z,70.94
2023-03-29T15:38:44.161Z,70.71
2023-03-29T15:41:14.311Z,68.06
2023-03-29T15:43:42.560Z,69.36
2023-03-29T15:46:13.996Z,70.24
2023-03-29T15:48:42.076Z,71.05
2023-03-29T15:51:10.799Z,70.96
2023-03-29T15:53:38.672Z,70.71
2023-03-29T15:56:10.145Z,69.82
2023-03-29T15:58:38.775Z,68.71
2023-03-29T16:01:15.976Z,67.29
2023-03-29T16:03:47.825Z,65.39
2023-03-29T16:06:17.405Z,64.66
2023-03-29T16:08:45.980Z,62.28
2023-03-29T16:11:13.730Z,62.29
2023-03-29T16:13:41.352Z,61.00
2023-03-29T16:16:11.323Z,60.44
2023-03-29T16:18:39.372Z,58.67
2023-03-29T16:21:14.355Z,58.97
2023-03-29T16:23:42.891Z,59.58
2023-03-29T16:26:13.105Z,59.44
2023-03-29T16:28:40.997Z,60.02
2023-03-29T16:31:11.249Z,59.31
2023-03-29T16:33:38.931Z,60.14
2023-03-29T16:36:09.135Z,60.04
2023-03-29T16:38:37.058Z,60.31
2023-03-29T16:41:04.976Z,60.48
2023-03-29T16:43:32.561Z,61.10
2023-03-29T16:46:00.281Z,61.59
2023-03-29T16:48:28.258Z,62.32
2023-03-29T16:50:56.045Z,62.56
2023-03-29T16:53:24.966Z,63.58
2023-03-29T16:55:52.563Z,64.07
2023-03-29T16:58:20.127Z,64.80
2023-03-29T17:00:48.633Z,66.17
2023-03-29T17:03:16.782Z,66.67
2023-03-29T17:05:48.234Z,67.91
2023-03-29T17:08:16.418Z,68.00
2023-03-29T17:10:46.215Z,69.05
2023-03-29T17:13:14.134Z,70.10
2023-03-29T17:15:42.414Z,70.93
2023-03-29T17:18:10.725Z,71.50
2023-03-29T17:20:41.248Z,71.91
2023-03-29T17:23:09.743Z,72.36
2023-03-29T17:25:39.372Z,72.49
2023-03-29T17:28:08.338Z,72.72
2023-03-29T17:30:36.176Z,72.88
2023-03-29T17:33:04.508Z,73.40
2023-03-29T17:35:32.929Z,73.92
2023-03-29T17:38:01.512Z,74.18
2023-03-29T17:40:29.080Z,74.63
2023-03-29T17:42:56.787Z,74.84
2023-03-29T17:45:25.734Z,74.99
2023-03-29T17:47:53.485Z,75.39
2023-03-29T17:50:21.735Z,75.48
2023-03-29T17:52:49.505Z,75.96
2023-03-29T17:55:17.746Z,76.31
2023-03-29T17:57:45.592Z,76.45
2023-03-29T18:00:17.474Z,76.71
2023-03-29T18:02:46.710Z,76.99
2023-03-29T18:05:14.468Z,77.10
2023-03-29T18:07:42.164Z,77.05
2023-03-29T18:10:10.524Z,77.08
2023-03-29T18:12:38.426Z,78.00
2023-03-29T18:15:07.156Z,78.24
2023-03-29T18:17:35.688Z,78.30
2023-03-29T18:20:09.827Z,78.42
2023-03-29T18:22:37.685Z,78.53
2023-03-29T18:25:07.270Z,79.17
2023-03-29T18:27:35.335Z,79.09
2023-03-29T18:30:03.021Z,79.27
2023-03-29T18:32:31.018Z,79.23
2023-03-29T18:34:58.621Z,78.82
2023-03-29T18:37:28.193Z,77.06
2023-03-29T18:39:55.844Z,76.11
2023-03-29T18:42:23.619Z,74.58
2023-03-29T18:44:51.357Z,74.13
2023-03-29T18:47:19.203Z,74.22
2023-03-29T18:49:47.220Z,73.08
2023-03-29T18:52:14.854Z,72.19
2023-03-29T18:54:43.796Z,72.43
2023-03-29T18:57:11.395Z,72.53
2023-03-29T18:59:39.406Z,72.92
2023-03-29T19:02:07.223Z,73.20
2023-03-29T19:04:34.935Z,74.29
2023-03-29T19:07:03.481Z,75.58
2023-03-29T19:09:31.927Z,74.27
2023-03-29T19:12:01.080Z,72.96
2023-03-29T19:14:29.276Z,72.41
2023-03-29T19:16:56.870Z,72.10
2023-03-29T19:19:26.353Z,71.17
2023-03-29T19:21:54.895Z,70.89
2023-03-29T19:24:23.156Z,71.87
2023-03-29T19:26:51.928Z,72.09
2023-03-29T19:29:21.629Z,72.74
2023-03-29T19:31:51.738Z,72.84
2023-03-29T19:34:22.887Z,73.18
2023-03-29T19:36:50.500Z,72.85
2023-03-29T19:39:18.145Z,72.25
2023-03-29T19:41:45.733Z,72.76
2023-03-29T19:44:14.232Z,72.69
2023-03-29T19:46:43.331Z,72.81
2023-03-29T19:49:13.695Z,72.75
2023-03-29T19:51:41.416Z,72.41
2023-03-29T19:54:09.225Z,70.95
2023-03-29T19:56:37.267Z,70.58
2023-03-29T19:59:05.009Z,69.57
2023-03-29T20:01:33.632Z,68.67
2023-03-29T20:04:03.470Z,68.59
2023-03-29T20:06:31.170Z,68.71
2023-03-29T20:08:58.852Z,68.40
2023-03-29T20:11:26.851Z,68.09
2023-03-29T20:13:54.795Z,68.42
2023-03-29T20:16:25.632Z,68.22
2023-03-29T20:18:54.799Z,67.73
2023-03-29T20:21:23.739Z,67.12
2023-03-29T20:23:51.574Z,66.83
2023-03-29T20:26:19.142Z,66.58
2023-03-29T20:28:47.106Z,66.63
2023-03-29T20:31:14.925Z,66.59
2023-03-29T20:33:44.340Z,66.45
2023-03-29T20:36:12.633Z,66.24
2023-03-29T20:38:41.615Z,66.13
2023-03-29T20:41:10.935Z,65.96
2023-03-29T20:43:38.653Z,66.21
2023-03-29T20:46:14.315Z,66.29
2023-03-29T20:48:52.873Z,66.45
2023-03-29T20:51:21.372Z,66.83
2023-03-29T20:53:50.617Z,66.39
2023-03-29T20:56:19.086Z,66.32
2023-03-29T20:58:46.868Z,66.32
2023-03-29T21:01:14.853Z,65.92
2023-03-29T21:03:43.236Z,66.06
2023-03-29T21:06:14.014Z,65.65
2023-03-29T21:08:42.505Z,65.58
2023-03-29T21:11:14.006Z,65.66
2023-03-29T21:13:42.086Z,65.80
2023-03-29T21:16:09.865Z,65.72
2023-03-29T21:18:38.622Z,66.19
2023-03-29T21:21:08.067Z,66.29
2023-03-29T21:23:35.947Z,67.03
2023-03-29T21:26:04.245Z,67.68
2023-03-29T21:28:33.234Z,68.23
2023-03-29T21:31:05.022Z,68.68
2023-03-29T21:33:33.437Z,69.80
2023-03-29T21:36:02.518Z,70.29
2023-03-29T21:38:30.603Z,70.54
2023-03-29T21:40:59.722Z,71.09
2023-03-29T21:43:27.298Z,71.04
2023-03-29T21:45:57.663Z,71.29
2023-03-29T21:48:25.332Z,70.74
2023-03-29T21:50:53.116Z,70.67
2023-03-29T21:53:20.828Z,70.41
2023-03-29T21:55:49.211Z,70.02
2023-03-29T21:58:16.924Z,69.81
2023-03-29T22:00:45.531Z,69.63
2023-03-29T22:03:15.224Z,69.58
2023-03-29T22:05:43.948Z,70.21
2023-03-29T22:08:11.670Z,70.35
2023-03-29T22:10:41.198Z,70.87
2023-03-29T22:13:09.063Z,71.00
2023-03-29T22:15:36.657Z,71.42
2023-03-29T22:18:05.228Z,71.46
2023-03-29T22:20:35.509Z,71.27
2023-03-29T22:23:03.293Z,71.46
2023-03-29T22:25:31.002Z,71.52
2023-03-29T22:27:59.639Z,71.52
2023-03-29T22:30:27.209Z,71.29
2023-03-29T22:32:54.941Z,71.72
2023-03-29T22:35:22.603Z,72.11
2023-03-29T22:37:52.249Z,72.08
2023-03-29T22:40:19.840Z,72.27
2023-03-29T22:42:47.523Z,72.02
2023-03-29T22:45:15.364Z,72.04
2023-03-29T22:47:43.433Z,72.43
2023-03-29T22:50:11.970Z,72.51
2023-03-29T22:52:40.157Z,71.83
2023-03-29T22:55:10.030Z,71.46
2023-03-29T22:57:37.785Z,71.18
2023-03-29T23:00:09.170Z,71.18
2023-03-29T23:02:37.661Z,72.44
2023-03-29T23:05:06.058Z,72.95
2023-03-29T23:07:36.401Z,73.10
2023-03-29T23:10:06.347Z,73.95
2023-03-29T23:12:36.493Z,74.34
2023-03-29T23:15:05.067Z,74.86
2023-03-29T23:17:33.240Z,75.67
2023-03-29T23:20:01.060Z,75.85
2023-03-29T23:22:29.077Z,76.42
2023-03-29T23:24:56.657Z,76.19
2023-03-29T23:27:24.657Z,76.91
2023-03-29T23:29:53.603Z,76.70
2023-03-29T23:32:21.436Z,76.54
2023-03-29T23:34:49.013Z,77.21
2023-03-29T23:37:16.903Z,77.71
2023-03-29T23:39:44.459Z,77.24
2023-03-29T23:42:12.042Z,77.14
2023-03-29T23:44:41.338Z,78.25
2023-03-29T23:47:10.323Z,78.64
2023-03-29T23:49:39.047Z,79.22
2023-03-29T23:52:06.683Z,79.56
2023-03-29T23:54:34.508Z,79.13
2023-03-29T23:57:02.131Z,79.34
2023-03-29T23:59:31.196Z,79.39
